Allenhurst, New Jersey
Current Conditions -  °F | °C
As of 9:15 AM on Thursday 23 Oct 2014 (Local Time) from KBLM Reporting Station
Overcast Overcast  
Wind Chill: 11°   Ceiling: 1800
Heat Index: 11°   Visibility: 10mi
Dew Point:   Wind: 16mph
Humidity: 76%   Direction: 330°NNW
Pressure: 29.7"   Gusts: NA
Location:  40.24°N, 74°W
Report Text: KBLM 231315Z AUTO 33014KT 10SM FEW013 BKN018 OVC024 11/07 A2970 RMK AO1 P0001
Loading
Personal Weather Stations






























Interactive Weather Map
Tropical Storm Tracking
New forecast layout! Learn more

10-Day Weather Forecast

Advertisements
Track Severe Weather on mobile